createdAt,value
2023-04-11T00:00:36.283Z,64.60
2023-04-11T00:03:03.315Z,64.80
2023-04-11T00:05:33.775Z,65.10
2023-04-11T00:08:00.703Z,65.10
2023-04-11T00:10:27.625Z,65.40
2023-04-11T00:12:56.942Z,65.70
2023-04-11T00:15:24.929Z,65.90
2023-04-11T00:17:53.560Z,66.10
2023-04-11T00:20:21.317Z,66.20
2023-04-11T00:22:50.654Z,66.50
2023-04-11T00:25:18.179Z,66.60
2023-04-11T00:27:45.080Z,66.60
2023-04-11T00:30:12.432Z,66.70
2023-04-11T00:32:39.344Z,66.80
2023-04-11T00:35:06.980Z,66.70
2023-04-11T00:37:36.300Z,66.80
2023-04-11T00:40:06.012Z,66.80
2023-04-11T00:42:33.510Z,66.90
2023-04-11T00:45:00.402Z,66.90
2023-04-11T00:47:27.505Z,67.00
2023-04-11T00:49:54.486Z,67.00
2023-04-11T00:52:21.431Z,67.30
2023-04-11T00:54:48.639Z,67.10
2023-04-11T00:57:16.371Z,67.20
2023-04-11T00:59:44.543Z,67.10
2023-04-11T01:02:11.372Z,67.20
2023-04-11T01:04:38.461Z,67.20
2023-04-11T01:07:07.943Z,67.20
2023-04-11T01:09:36.861Z,67.10
2023-04-11T01:12:05.855Z,67.20
2023-04-11T01:14:33.426Z,67.10
2023-04-11T01:17:02.532Z,67.20
2023-04-11T01:19:30.170Z,67.00
2023-04-11T01:21:59.132Z,66.80
2023-04-11T01:24:26.598Z,66.80
2023-04-11T01:26:53.999Z,66.80
2023-04-11T01:29:21.546Z,66.70
2023-04-11T01:31:49.977Z,66.60
2023-04-11T01:34:18.147Z,66.50
2023-04-11T01:36:45.553Z,66.50
2023-04-11T01:39:12.387Z,66.50
2023-04-11T01:41:41.843Z,66.40
2023-04-11T01:44:09.964Z,66.30
2023-04-11T01:46:37.166Z,66.20
2023-04-11T01:49:06.765Z,66.30
2023-04-11T01:51:37.324Z,66.30
2023-04-11T01:54:04.599Z,66.60
2023-04-11T01:56:31.500Z,66.60
2023-04-11T01:59:01.228Z,66.60
2023-04-11T02:01:28.498Z,66.50
2023-04-11T02:03:55.600Z,66.60
2023-04-11T02:06:22.457Z,66.60
2023-04-11T02:08:49.550Z,66.60
2023-04-11T02:11:18.731Z,66.70
2023-04-11T02:13:47.094Z,66.50
2023-04-11T02:16:16.217Z,66.60
2023-04-11T02:18:44.606Z,66.50
2023-04-11T02:21:12.066Z,66.30
2023-04-11T02:23:39.212Z,66.20
2023-04-11T02:26:06.359Z,66.10
2023-04-11T02:28:33.722Z,65.60
2023-04-11T02:31:00.668Z,65.70
2023-04-11T02:33:27.618Z,65.40
2023-04-11T02:35:54.745Z,65.10
2023-04-11T02:38:21.830Z,64.80
2023-04-11T02:40:48.611Z,64.60
2023-04-11T02:43:16.353Z,63.90
2023-04-11T02:45:44.944Z,63.70
2023-04-11T02:48:11.842Z,63.60
2023-04-11T02:50:41.218Z,63.40
2023-04-11T02:53:08.289Z,63.30
2023-04-11T02:55:35.225Z,63.20
2023-04-11T02:58:02.234Z,63.00
2023-04-11T03:00:29.536Z,62.80
2023-04-11T03:02:57.175Z,62.70
2023-04-11T03:05:24.205Z,62.60
2023-04-11T03:07:51.100Z,62.80
2023-04-11T03:10:18.088Z,62.50
2023-04-11T03:12:44.874Z,62.60
2023-04-11T03:15:11.924Z,62.60
2023-04-11T03:17:38.864Z,62.80
2023-04-11T03:20:07.324Z,62.90
2023-04-11T03:22:35.420Z,62.80
2023-04-11T03:25:02.159Z,62.90
2023-04-11T03:27:29.117Z,62.70
2023-04-11T03:29:57.073Z,62.90
2023-04-11T03:32:24.303Z,62.80
2023-04-11T03:34:51.228Z,62.80
2023-04-11T03:37:18.132Z,63.40
2023-04-11T03:39:44.983Z,62.70
2023-04-11T03:42:13.202Z,62.50
2023-04-11T03:44:39.928Z,62.30
2023-04-11T03:47:06.964Z,62.40
2023-04-11T03:49:34.093Z,62.50
2023-04-11T03:52:01.395Z,62.30
2023-04-11T03:54:28.683Z,62.40
2023-04-11T03:56:55.738Z,62.10
2023-04-11T03:59:22.546Z,61.90
2023-04-11T04:01:49.507Z,62.00
2023-04-11T04:04:16.540Z,61.90
2023-04-11T04:06:46.005Z,62.10
2023-04-11T04:09:13.782Z,62.10
2023-04-11T04:11:42.232Z,62.20
2023-04-11T04:14:09.013Z,62.20
2023-04-11T04:16:35.922Z,62.30
2023-04-11T04:19:04.016Z,62.40
2023-04-11T04:21:32.565Z,62.40
2023-04-11T04:24:03.862Z,62.30
2023-04-11T04:26:32.513Z,62.30
2023-04-11T04:29:04.870Z,62.50
2023-04-11T04:31:34.167Z,62.50
2023-04-11T04:34:09.969Z,62.40
2023-04-11T04:36:56.664Z,62.30
2023-04-11T04:39:25.416Z,62.40
2023-04-11T04:41:58.540Z,62.40
2023-04-11T04:44:27.344Z,62.40
2023-04-11T04:46:55.573Z,62.20
2023-04-11T04:49:22.825Z,62.20
2023-04-11T04:51:49.811Z,62.00
2023-04-11T04:54:19.369Z,62.00
2023-04-11T04:56:48.388Z,61.90
2023-04-11T04:59:18.815Z,61.70
2023-04-11T05:01:45.871Z,61.70
2023-04-11T05:04:12.964Z,61.60
2023-04-11T05:06:40.169Z,61.50
2023-04-11T05:09:06.981Z,61.30
2023-04-11T05:11:34.331Z,61.10
2023-04-11T05:14:01.275Z,61.10
2023-04-11T05:16:28.164Z,60.90
2023-04-11T05:18:55.169Z,60.80
2023-04-11T05:21:22.525Z,60.90
2023-04-11T05:23:49.413Z,60.70
2023-04-11T05:26:16.277Z,60.70
2023-04-11T05:28:43.489Z,60.50
2023-04-11T05:31:11.841Z,60.50
2023-04-11T05:33:40.116Z,60.40
2023-04-11T05:36:07.799Z,60.40
2023-04-11T05:38:34.637Z,60.30
2023-04-11T05:41:01.554Z,60.20
2023-04-11T05:43:28.501Z,60.30
2023-04-11T05:45:55.754Z,60.30
2023-04-11T05:48:24.013Z,60.40
2023-04-11T05:50:51.503Z,60.30
2023-04-11T05:53:18.648Z,60.30
2023-04-11T05:55:45.471Z,60.40
2023-04-11T05:58:12.357Z,60.50
2023-04-11T06:00:39.474Z,60.40
2023-04-11T06:03:10.099Z,60.50
2023-04-11T06:05:37.117Z,60.60
2023-04-11T06:08:06.926Z,60.70
2023-04-11T06:10:34.589Z,60.70
2023-04-11T06:13:02.919Z,60.60
2023-04-11T06:15:29.853Z,60.80
2023-04-11T06:17:56.875Z,60.40
2023-04-11T06:20:28.252Z,60.50
2023-04-11T06:22:55.302Z,60.60
2023-04-11T06:25:24.448Z,60.70
2023-04-11T06:27:51.737Z,60.80
2023-04-11T06:30:18.657Z,60.60
2023-04-11T06:32:45.869Z,60.40
2023-04-11T06:35:13.012Z,60.30
2023-04-11T06:37:39.892Z,60.50
2023-04-11T06:40:08.138Z,60.60
2023-04-11T06:42:35.060Z,60.80
2023-04-11T06:45:02.010Z,60.60
2023-04-11T06:47:28.876Z,60.70
2023-04-11T06:49:56.426Z,60.30
2023-04-11T06:52:23.305Z,60.50
2023-04-11T06:54:50.205Z,60.50
2023-04-11T06:57:18.087Z,60.00
2023-04-11T06:59:44.920Z,59.80
2023-04-11T07:02:11.856Z,59.90
2023-04-11T07:04:38.995Z,59.40
2023-04-11T07:07:06.049Z,59.40
2023-04-11T07:09:33.991Z,59.30
2023-04-11T07:12:01.812Z,59.30
2023-04-11T07:14:30.056Z,59.00
2023-04-11T07:16:57.111Z,59.00
2023-04-11T07:19:23.894Z,59.10
2023-04-11T07:21:51.824Z,58.50
2023-04-11T07:24:18.741Z,57.80
2023-04-11T07:26:46.869Z,57.50
2023-04-11T07:29:14.837Z,57.40
2023-04-11T07:31:44.418Z,57.60
2023-04-11T07:34:11.460Z,57.50
2023-04-11T07:36:38.464Z,57.10
2023-04-11T07:39:09.311Z,57.00
2023-04-11T07:41:37.247Z,57.20
2023-04-11T07:44:07.615Z,57.20
2023-04-11T07:46:34.641Z,56.70
2023-04-11T07:49:01.581Z,56.60
2023-04-11T07:51:28.531Z,56.00
2023-04-11T07:53:55.587Z,55.90
2023-04-11T07:56:22.568Z,55.70
2023-04-11T07:58:50.765Z,55.90
2023-04-11T08:01:24.017Z,56.20
2023-04-11T08:03:56.468Z,56.00
2023-04-11T08:06:24.079Z,55.90
2023-04-11T08:08:51.684Z,55.30
2023-04-11T08:11:18.880Z,55.50
2023-04-11T08:13:45.692Z,55.40
2023-04-11T08:16:16.497Z,55.10
2023-04-11T08:18:45.570Z,55.00
2023-04-11T08:21:14.087Z,55.10
2023-04-11T08:23:42.476Z,54.00
2023-04-11T08:26:09.939Z,53.60
2023-04-11T08:28:36.875Z,53.50
2023-04-11T08:31:05.607Z,53.60
2023-04-11T08:33:33.985Z,53.30
2023-04-11T08:36:00.920Z,53.70
2023-04-11T08:38:27.828Z,54.00
2023-04-11T08:40:55.561Z,53.90
2023-04-11T08:43:22.693Z,53.20
2023-04-11T08:45:49.980Z,53.10
2023-04-11T08:48:17.196Z,52.90
2023-04-11T08:50:44.658Z,53.00
2023-04-11T08:53:12.420Z,53.00
2023-04-11T08:55:49.398Z,53.10
2023-04-11T08:58:16.863Z,52.40
2023-04-11T09:00:44.057Z,52.20
2023-04-11T09:03:12.807Z,52.10
2023-04-11T09:05:43.278Z,52.30
2023-04-11T09:08:12.248Z,50.70
2023-04-11T09:10:40.502Z,50.10
2023-04-11T09:13:30.534Z,49.80
2023-04-11T09:16:15.462Z,49.90
2023-04-11T09:18:44.345Z,50.20
2023-04-11T09:21:15.831Z,50.30
2023-04-11T09:23:43.746Z,50.80
2023-04-11T09:26:12.439Z,50.70
2023-04-11T09:28:53.869Z,50.40
2023-04-11T09:31:22.031Z,50.60
2023-04-11T09:33:57.283Z,50.70
2023-04-11T09:36:27.137Z,50.00
2023-04-11T09:38:54.142Z,49.10
2023-04-11T09:41:35.074Z,48.70
2023-04-11T09:44:02.652Z,48.20
2023-04-11T09:46:29.783Z,48.10
2023-04-11T09:48:57.405Z,47.60
2023-04-11T09:51:35.605Z,47.30
2023-04-11T09:54:04.714Z,47.80
2023-04-11T09:56:34.889Z,48.10
2023-04-11T09:59:03.123Z,48.50
2023-04-11T10:01:30.030Z,48.50
2023-04-11T10:03:57.727Z,48.70
2023-04-11T10:06:34.489Z,48.40
2023-04-11T10:09:12.799Z,47.80
2023-04-11T10:11:46.664Z,47.70
2023-04-11T10:14:48.981Z,47.50
2023-04-11T10:17:22.770Z,47.80
2023-04-11T10:19:55.004Z,47.50
2023-04-11T10:22:44.208Z,47.20
2023-04-11T10:25:21.099Z,47.50
2023-04-11T10:28:01.600Z,47.60
2023-04-11T10:30:40.393Z,47.20
2023-04-11T10:33:19.668Z,46.00
2023-04-11T10:36:03.957Z,45.40
2023-04-11T10:38:49.067Z,45.80
2023-04-11T10:41:36.558Z,45.50
2023-04-11T10:44:16.305Z,46.00
2023-04-11T10:46:54.344Z,45.80
2023-04-11T10:49:38.779Z,46.10
2023-04-11T10:52:19.227Z,45.30
2023-04-11T10:54:49.606Z,44.50
2023-04-11T10:57:18.238Z,45.00
2023-04-11T11:00:12.267Z,45.20
2023-04-11T11:02:41.238Z,44.90
2023-04-11T11:05:18.554Z,45.30
2023-04-11T11:07:49.585Z,45.40
2023-04-11T11:10:16.681Z,44.40
2023-04-11T11:12:54.750Z,43.60
2023-04-11T11:15:21.709Z,43.80
2023-04-11T11:17:49.238Z,44.00
2023-04-11T11:20:22.849Z,44.30
2023-04-11T11:23:02.845Z,44.60
2023-04-11T11:25:31.490Z,43.70
2023-04-11T11:28:06.412Z,42.60
2023-04-11T11:30:35.032Z,42.70
2023-04-11T11:33:18.325Z,43.10
2023-04-11T11:35:54.486Z,43.20
2023-04-11T11:38:25.092Z,43.00
2023-04-11T11:40:52.338Z,43.30
2023-04-11T11:43:19.571Z,43.20
2023-04-11T11:45:47.242Z,43.00
2023-04-11T11:48:24.831Z,42.40
2023-04-11T11:50:58.655Z,42.70
2023-04-11T11:53:29.301Z,43.90
2023-04-11T11:55:59.571Z,43.20
2023-04-11T11:58:27.535Z,43.30
2023-04-11T12:00:56.520Z,43.30
2023-04-11T12:03:24.906Z,43.20
2023-04-11T12:05:56.081Z,42.80
2023-04-11T12:08:24.757Z,42.80
2023-04-11T12:10:51.720Z,43.30
2023-04-11T12:13:25.771Z,43.00
2023-04-11T12:15:58.029Z,42.80
2023-04-11T12:18:28.048Z,42.50
2023-04-11T12:20:55.631Z,42.00
2023-04-11T12:23:23.016Z,42.50
2023-04-11T12:25:51.193Z,42.90
2023-04-11T12:28:18.296Z,43.00
2023-04-11T12:30:45.093Z,43.10
2023-04-11T12:33:12.048Z,42.00
2023-04-11T12:35:38.836Z,42.00
2023-04-11T12:38:07.962Z,42.60
2023-04-11T12:40:34.785Z,42.40
2023-04-11T12:43:02.645Z,40.90
2023-04-11T12:45:29.487Z,40.60
2023-04-11T12:47:56.527Z,39.70
2023-04-11T12:50:24.271Z,39.20
2023-04-11T12:52:51.745Z,38.80
2023-04-11T12:55:19.843Z,38.50
2023-04-11T12:57:46.766Z,38.50
2023-04-11T13:00:14.493Z,39.10
2023-04-11T13:02:44.447Z,39.60
2023-04-11T13:05:16.555Z,39.90
2023-04-11T13:07:45.372Z,38.20
2023-04-11T13:10:14.295Z,37.70
2023-04-11T13:12:45.602Z,36.70
2023-04-11T13:15:16.855Z,37.00
2023-04-11T13:17:44.420Z,37.30
2023-04-11T13:20:13.256Z,37.20
2023-04-11T13:22:41.624Z,37.30
2023-04-11T13:25:09.636Z,37.30
2023-04-11T13:27:37.672Z,37.60
2023-04-11T13:30:05.222Z,37.60
2023-04-11T13:32:32.719Z,38.10
2023-04-11T13:35:01.049Z,38.60
2023-04-11T13:37:28.314Z,38.50
2023-04-11T13:39:55.156Z,38.10
2023-04-11T13:42:22.719Z,38.20
2023-04-11T13:44:49.660Z,37.10
2023-04-11T13:47:16.528Z,36.60
2023-04-11T13:49:44.969Z,36.40
2023-04-11T13:52:11.817Z,36.30
2023-04-11T13:54:39.139Z,37.40
2023-04-11T13:57:07.857Z,36.90
2023-04-11T13:59:35.289Z,36.60
2023-04-11T14:02:02.736Z,36.70
2023-04-11T14:04:29.942Z,36.80
2023-04-11T14:06:57.369Z,36.10
2023-04-11T14:09:24.327Z,35.60
2023-04-11T14:11:51.326Z,35.30
2023-04-11T14:14:18.119Z,35.30
2023-04-11T14:16:44.972Z,35.30
2023-04-11T14:19:11.755Z,35.30
2023-04-11T14:21:38.657Z,34.40
2023-04-11T14:24:05.957Z,34.50
2023-04-11T14:26:32.793Z,34.30
2023-04-11T14:28:59.681Z,34.10
2023-04-11T14:31:26.688Z,34.40
2023-04-11T14:33:53.784Z,34.80
2023-04-11T14:36:20.938Z,34.20
2023-04-11T14:38:48.077Z,34.90
2023-04-11T14:41:16.351Z,35.20
2023-04-11T14:43:43.403Z,35.20
2023-04-11T14:46:10.514Z,35.30
2023-04-11T14:48:37.701Z,35.30
2023-04-11T14:51:04.743Z,34.50
2023-04-11T14:53:31.600Z,34.80
2023-04-11T14:55:58.416Z,34.30
2023-04-11T14:58:25.481Z,34.50
2023-04-11T15:00:52.318Z,34.20
2023-04-11T15:03:19.175Z,34.30
2023-04-11T15:05:46.126Z,34.20
2023-04-11T15:08:13.056Z,33.70
2023-04-11T15:10:40.060Z,33.70
2023-04-11T15:13:09.118Z,33.90
2023-04-11T15:15:37.486Z,33.80
2023-04-11T15:18:22.562Z,34.00
2023-04-11T15:20:49.846Z,33.80
2023-04-11T15:23:18.633Z,34.00
2023-04-11T15:25:47.627Z,33.90
2023-04-11T15:28:14.519Z,32.80
2023-04-11T15:30:47.992Z,32.90
2023-04-11T15:33:16.453Z,33.00
2023-04-11T15:35:44.853Z,33.40
2023-04-11T15:38:12.967Z,33.50
2023-04-11T15:40:41.492Z,34.10
2023-04-11T15:43:10.010Z,34.10
2023-04-11T15:45:38.906Z,34.20
2023-04-11T15:48:07.157Z,34.30
2023-04-11T15:50:34.225Z,34.30
2023-04-11T15:53:01.238Z,34.60
2023-04-11T15:55:28.681Z,33.60
2023-04-11T15:57:56.808Z,33.70
2023-04-11T16:00:23.958Z,33.50
2023-04-11T16:02:51.349Z,33.40
2023-04-11T16:05:20.995Z,33.10
2023-04-11T16:07:48.432Z,33.20
2023-04-11T16:10:16.698Z,33.40
2023-04-11T16:12:43.586Z,33.00
2023-04-11T16:15:10.658Z,32.90
2023-04-11T16:17:39.725Z,32.80
2023-04-11T16:20:12.116Z,33.30
2023-04-11T16:22:39.680Z,33.20
2023-04-11T16:25:07.104Z,33.40
2023-04-11T16:27:34.490Z,33.40
2023-04-11T16:30:05.058Z,33.30
2023-04-11T16:32:32.818Z,33.20
2023-04-11T16:35:00.431Z,33.60
2023-04-11T16:37:27.769Z,33.80
2023-04-11T16:39:54.751Z,33.80
2023-04-11T16:42:22.944Z,33.90
2023-04-11T16:44:49.870Z,33.90
2023-04-11T16:47:17.220Z,34.20
2023-04-11T16:49:45.795Z,34.70
2023-04-11T16:52:14.085Z,34.10
2023-04-11T16:54:45.019Z,34.60
2023-04-11T16:57:11.977Z,34.90
2023-04-11T16:59:39.577Z,34.90
2023-04-11T17:02:06.813Z,35.40
2023-04-11T17:04:35.536Z,35.70
2023-04-11T17:07:02.373Z,36.10
2023-04-11T17:09:29.585Z,36.20
2023-04-11T17:11:57.900Z,36.20
2023-04-11T17:14:24.741Z,36.30
2023-04-11T17:16:51.918Z,36.50
2023-04-11T17:19:18.779Z,36.80
2023-04-11T17:21:45.614Z,36.80
2023-04-11T17:24:12.417Z,37.10
2023-04-11T17:26:41.324Z,37.30
2023-04-11T17:29:08.279Z,37.40
2023-04-11T17:31:35.196Z,37.70
2023-04-11T17:34:02.132Z,38.10
2023-04-11T17:36:28.934Z,38.20
2023-04-11T17:38:56.201Z,38.40
2023-04-11T17:41:23.587Z,39.40
2023-04-11T17:43:51.744Z,39.10
2023-04-11T17:46:20.385Z,39.30
2023-04-11T17:48:48.825Z,39.50
2023-04-11T17:51:15.873Z,39.80
2023-04-11T17:53:42.621Z,40.10
2023-04-11T17:56:09.813Z,40.20
2023-04-11T17:58:37.235Z,40.40
2023-04-11T18:01:09.030Z,40.50
2023-04-11T18:03:36.114Z,40.50
2023-04-11T18:06:03.752Z,40.70
2023-04-11T18:08:49.240Z,41.00
2023-04-11T18:11:17.549Z,41.10
2023-04-11T18:13:44.407Z,41.30
2023-04-11T18:16:11.564Z,41.50
2023-04-11T18:18:38.703Z,41.60
2023-04-11T18:21:07.500Z,42.40
2023-04-11T18:23:35.394Z,41.80
2023-04-11T18:26:02.332Z,42.00
2023-04-11T18:28:29.541Z,42.00
2023-04-11T18:30:56.842Z,42.10
2023-04-11T18:33:23.959Z,42.90
2023-04-11T18:35:52.575Z,42.30
2023-04-11T18:38:19.443Z,42.40
2023-04-11T18:40:46.468Z,42.50
2023-04-11T18:43:14.459Z,42.60
2023-04-11T18:45:42.960Z,42.80
2023-04-11T18:48:10.759Z,42.90
2023-04-11T18:50:39.043Z,43.00
2023-04-11T18:53:09.021Z,43.00
2023-04-11T18:55:40.031Z,43.10
2023-04-11T18:58:09.127Z,43.20
2023-04-11T19:00:39.456Z,43.30
2023-04-11T19:03:07.185Z,43.30
2023-04-11T19:05:34.755Z,43.30
2023-04-11T19:08:01.725Z,43.40
2023-04-11T19:10:28.555Z,43.50
2023-04-11T19:12:55.521Z,43.70
2023-04-11T19:15:22.389Z,43.70
2023-04-11T19:17:49.804Z,43.90
2023-04-11T19:20:17.839Z,43.90
2023-04-11T19:22:46.334Z,44.00
2023-04-11T19:25:14.829Z,44.10
2023-04-11T19:27:42.580Z,44.20
2023-04-11T19:30:13.844Z,44.20
2023-04-11T19:32:43.779Z,44.40
2023-04-11T19:35:11.859Z,44.50
2023-04-11T19:37:39.138Z,44.60
2023-04-11T19:40:08.067Z,44.70
2023-04-11T19:42:37.413Z,44.90
2023-04-11T19:45:05.074Z,44.90
2023-04-11T19:47:32.909Z,45.00
2023-04-11T19:50:02.878Z,45.10
2023-04-11T19:52:30.720Z,45.10
2023-04-11T19:54:57.824Z,45.20
2023-04-11T19:57:27.153Z,45.30
2023-04-11T19:59:54.273Z,45.40
2023-04-11T20:02:21.531Z,45.50
2023-04-11T20:04:49.756Z,45.60
2023-04-11T20:07:16.776Z,45.70
2023-04-11T20:09:44.018Z,45.80
2023-04-11T20:12:11.369Z,45.80
2023-04-11T20:14:38.344Z,46.10
2023-04-11T20:17:08.823Z,46.10
2023-04-11T20:19:37.797Z,46.20
2023-04-11T20:22:04.900Z,46.20
2023-04-11T20:24:31.825Z,46.30
2023-04-11T20:26:58.694Z,46.30
2023-04-11T20:29:30.835Z,46.30
2023-04-11T20:31:58.203Z,46.50
2023-04-11T20:34:24.982Z,46.60
2023-04-11T20:36:52.598Z,46.80
2023-04-11T20:39:19.447Z,46.80
2023-04-11T20:41:46.181Z,47.10
2023-04-11T20:44:13.437Z,47.20
2023-04-11T20:46:40.508Z,47.30
2023-04-11T20:49:07.385Z,47.40
2023-04-11T20:51:34.710Z,47.50
2023-04-11T20:54:01.712Z,47.70
2023-04-11T20:56:35.283Z,47.90
2023-04-11T20:59:02.985Z,47.80
2023-04-11T21:01:33.662Z,48.00
2023-04-11T21:04:02.871Z,48.10
2023-04-11T21:06:33.291Z,48.20
2023-04-11T21:09:01.416Z,48.20
2023-04-11T21:11:28.226Z,48.30
2023-04-11T21:13:55.719Z,48.50
2023-04-11T21:16:22.915Z,48.60
2023-04-11T21:18:50.025Z,48.60
2023-04-11T21:21:17.065Z,48.80
2023-04-11T21:23:44.109Z,48.80
2023-04-11T21:26:12.276Z,48.80
2023-04-11T21:28:42.359Z,48.90
2023-04-11T21:31:09.337Z,49.00
2023-04-11T21:33:36.553Z,49.10
2023-04-11T21:36:03.546Z,49.20
2023-04-11T21:38:30.543Z,49.20
2023-04-11T21:40:58.055Z,49.30
2023-04-11T21:43:25.308Z,49.30
2023-04-11T21:45:52.663Z,49.40
2023-04-11T21:48:19.655Z,49.50
2023-04-11T21:50:46.565Z,49.50
2023-04-11T21:53:14.190Z,49.60
2023-04-11T21:55:47.185Z,49.70
2023-04-11T21:58:28.544Z,50.00
2023-04-11T22:00:56.813Z,49.80
2023-04-11T22:03:24.802Z,50.00
2023-04-11T22:05:54.854Z,50.10
2023-04-11T22:08:22.642Z,50.30
2023-04-11T22:10:52.570Z,50.50
2023-04-11T22:13:19.931Z,50.50
2023-04-11T22:15:48.915Z,50.80
2023-04-11T22:18:18.732Z,51.00
2023-04-11T22:20:45.771Z,51.20
2023-04-11T22:23:14.037Z,51.50
2023-04-11T22:25:42.554Z,51.70
2023-04-11T22:28:15.682Z,51.80
2023-04-11T22:30:44.128Z,52.00
2023-04-11T22:33:13.840Z,52.00
2023-04-11T22:35:44.036Z,52.20
2023-04-11T22:38:12.089Z,52.30
2023-04-11T22:40:40.267Z,52.50
2023-04-11T22:43:07.397Z,52.70
2023-04-11T22:45:35.996Z,53.20
2023-04-11T22:48:04.680Z,53.10
2023-04-11T22:50:39.493Z,53.10
2023-04-11T22:53:11.604Z,53.30
2023-04-11T22:55:39.971Z,53.30
2023-04-11T22:58:07.994Z,53.60
2023-04-11T23:00:38.447Z,53.50
2023-04-11T23:03:07.667Z,53.70
2023-04-11T23:05:38.830Z,53.90
2023-04-11T23:08:06.694Z,54.10
2023-04-11T23:10:33.795Z,54.20
2023-04-11T23:13:00.830Z,54.20
2023-04-11T23:15:27.849Z,54.30
2023-04-11T23:17:54.695Z,54.50
2023-04-11T23:20:22.192Z,54.50
2023-04-11T23:22:49.129Z,54.70
2023-04-11T23:25:15.968Z,54.80
2023-04-11T23:27:44.707Z,54.90
2023-04-11T23:30:12.372Z,55.00
2023-04-11T23:32:40.054Z,55.10
2023-04-11T23:35:08.221Z,55.20
2023-04-11T23:37:35.103Z,55.40
2023-04-11T23:40:11.830Z,55.40
2023-04-11T23:42:43.684Z,55.50
2023-04-11T23:45:12.660Z,55.80
2023-04-11T23:47:39.695Z,55.90
2023-04-11T23:50:06.872Z,56.10
2023-04-11T23:52:34.636Z,56.30
2023-04-11T23:55:01.640Z,56.40
2023-04-11T23:57:28.660Z,56.50
2023-04-11T23:59:55.578Z,56.60
